Time;durP1;ratioP1;P1;durP2;ratioP2;P2;SDS_P1;SDS_P2;PMS_P1;PMS_P2;Temp;Humidity;BMP_temperature;BMP_pressure;BME280_temperature;BME280_humidity;BME280_pressure;Samples;Min_cycle;Max_cycle;Signal;HPM_P1;HPM_P2
2022/06/13 00:26:13;;;;;;;1.70;1.60;;;;;;;18.39;71.67;96888.03;6298631;22;20214;-92
2022/06/13 00:28:40;;;;;;;1.60;1.50;;;;;;;17.44;71.92;96760.34;6228696;22;20155;-93
2022/06/13 00:31:07;;;;;;;1.60;1.50;;;;;;;18.53;71.80;96960.56;6243667;22;20219;-93
2022/06/13 00:33:33;;;;;;;1.50;1.40;;;;;;;19.10;72.09;97048.94;6248497;22;20145;-94
2022/06/13 00:36:00;;;;;;;1.97;1.60;;;;;;;18.81;71.79;97031.88;6223368;22;20148;-92
2022/06/13 00:38:27;;;;;;;2.03;1.70;;;;;;;20.78;72.53;97403.69;6223322;22;20168;-93
2022/06/13 00:43:45;;;;;;;1.70;1.60;;;;;;;18.10;71.72;96918.44;6305097;22;20207;-95
2022/06/13 00:46:17;;;;;;;1.70;1.60;;;;;;;20.05;72.26;97164.94;6278994;22;20179;-94
2022/06/13 00:48:44;;;;;;;2.80;1.67;;;;;;;20.50;72.31;97300.69;6253431;22;20163;-94
2022/06/13 00:51:11;;;;;;;1.70;1.60;;;;;;;17.32;72.05;96744.66;6221858;22;20184;-92
2022/06/13 00:53:37;;;;;;;1.90;1.73;;;;;;;17.03;72.19;96639.63;6223136;22;20172;-94
2022/06/13 00:56:08;;;;;;;1.70;1.60;;;;;;;22.22;72.45;97621.09;6223564;22;20137;-93
2022/06/13 00:58:38;;;;;;;1.80;1.70;;;;;;;20.57;72.41;97331.53;6223377;22;20152;-92
2022/06/13 01:01:05;;;;;;;1.60;1.50;;;;;;;20.72;72.45;97364.34;6246799;22;20188;-94
2022/06/13 01:03:33;;;;;;;1.67;1.57;;;;;;;22.23;72.69;97581.91;6223413;22;20179;-93
2022/06/13 01:06:00;;;;;;;1.53;1.43;;;;;;;15.80;72.42;96532.19;6223303;22;20220;-94
2022/06/13 01:08:29;;;;;;;1.50;1.40;;;;;;;19.91;72.43;97159.41;6223229;22;20153;-94
2022/06/13 01:11:16;;;;;;;1.70;1.60;;;;;;;19.51;72.37;97114.84;6223776;22;20223;-93
2022/06/13 01:14:21;;;;;;;1.60;1.50;;;;;;;22.24;72.75;97575.94;6228683;22;20207;-94
2022/06/13 01:16:53;;;;;;;1.50;1.40;;;;;;;16.92;72.64;96723.81;6249697;22;20162;-93
2022/06/13 01:19:45;;;;;;;1.50;1.40;;;;;;;22.23;72.75;97603.22;6249756;22;20140;-94
2022/06/13 01:22:50;;;;;;;1.63;1.53;;;;;;;22.23;72.69;97605.78;6249810;22;20180;-93
2022/06/13 01:25:22;;;;;;;1.77;1.67;;;;;;;22.24;72.80;97611.78;6249573;22;20164;-93
2022/06/13 01:28:43;;;;;;;1.90;1.80;;;;;;;17.14;72.62;96797.38;6275652;22;20152;-93
2022/06/13 01:31:26;;;;;;;1.73;1.63;;;;;;;21.06;72.82;97413.97;6183655;23;20217;-93
2022/06/13 01:33:59;;;;;;;1.70;1.60;;;;;;;22.24;72.97;97625.47;6253280;22;20349;-93
2022/06/13 01:39:35;;;;;;;1.70;1.60;;;;;;;19.13;72.20;97123.75;6336618;22;20215;-94
2022/06/13 01:42:10;;;;;;;1.70;1.60;;;;;;;19.01;73.36;97166.66;6261787;22;20147;-95
2022/06/13 01:44:56;;;;;;;1.70;1.60;;;;;;;22.25;72.96;97664.72;6311688;22;20154;-92
2022/06/13 01:47:49;;;;;;;1.63;1.53;;;;;;;18.04;73.52;97001.28;6311253;22;20139;-93
2022/06/13 01:50:40;;;;;;;1.63;1.53;;;;;;;22.25;72.91;97665.59;6310843;22;20188;-93
2022/06/13 01:53:36;;;;;;;1.87;1.77;;;;;;;18.68;72.54;97050.13;6285873;22;20140;-94
2022/06/13 01:56:07;;;;;;;1.60;1.50;;;;;;;19.63;72.22;97266.44;6249681;22;20182;-94
2022/06/13 01:58:36;;;;;;;1.63;1.53;;;;;;;22.25;72.88;97646.78;6311719;22;20201;-94
2022/06/13 02:01:09;;;;;;;1.70;1.60;;;;;;;19.12;72.63;97100.78;6336711;22;20171;-91
2022/06/13 02:03:59;;;;;;;4.03;1.60;;;;;;;18.89;72.33;97064.41;6260421;22;20155;-94
2022/06/13 02:06:28;;;;;;;1.70;1.60;;;;;;;19.09;72.69;97100.69;6311938;22;20194;-94
2022/06/13 02:09:02;;;;;;;2.70;1.50;;;;;;;22.24;72.92;97630.56;6310701;22;20218;-93
2022/06/13 02:11:31;;;;;;;1.90;1.80;;;;;;;22.25;72.95;97632.31;6285556;22;20180;-92
2022/06/13 02:14:16;;;;;;;1.70;1.60;;;;;;;22.26;72.93;97628.06;6310543;22;20162;-94
2022/06/13 02:19:25;;;;;;;1.67;1.57;;;;;;;18.19;72.83;96936.56;6335840;22;20230;-93
2022/06/13 02:22:00;;;;;;;1.60;1.50;;;;;;;19.16;72.90;97082.25;6286468;22;20143;-94
2022/06/13 02:24:32;;;;;;;1.60;1.50;;;;;;;22.25;72.82;97570.84;6311700;22;20171;-93
2022/06/13 02:26:59;;;;;;;1.97;1.70;;;;;;;19.36;72.43;97025.19;6311169;22;20166;-91
2022/06/13 02:29:32;;;;;;;1.70;1.60;;;;;;;19.20;71.97;96962.69;6285206;22;20199;-93
2022/06/13 02:32:06;;;;;;;2.10;1.60;;;;;;;19.45;72.46;97056.88;6260374;22;20170;-95
2022/06/13 02:34:40;;;;;;;1.70;1.60;;;;;;;19.15;71.81;97027.03;6285161;22;20136;-94
2022/06/13 02:37:09;;;;;;;1.50;1.40;;;;;;;22.28;72.73;97552.13;6260974;22;20167;-92
2022/06/13 02:39:40;;;;;;;1.70;1.60;;;;;;;22.28;72.73;97534.22;6310321;22;20171;-93
2022/06/13 02:42:12;;;;;;;1.60;1.50;;;;;;;22.28;72.57;97526.53;6285122;22;20170;-93
2022/06/13 02:45:02;;;;;;;1.80;1.70;;;;;;;22.27;72.74;97520.56;6310410;22;20169;-92
2022/06/13 02:48:04;;;;;;;1.63;1.53;;;;;;;22.29;72.72;97538.53;6310508;22;20151;-93
2022/06/13 02:50:42;;;;;;;1.60;1.50;;;;;;;19.94;72.58;97159.50;6269524;22;20204;-94
2022/06/13 02:53:25;;;;;;;1.70;1.60;;;;;;;22.28;72.75;97565.81;6336405;22;20155;-92
2022/06/13 02:56:06;;;;;;;1.60;1.50;;;;;;;22.28;72.79;97570.94;6336127;22;20165;-93
2022/06/13 02:58:42;;;;;;;1.70;1.60;;;;;;;22.27;72.76;97571.78;6287319;22;20143;-94
2022/06/13 03:01:26;;;;;;;1.80;1.70;;;;;;;18.16;72.41;96885.59;6284772;22;20243;-94
2022/06/13 03:04:04;;;;;;;1.50;1.40;;;;;;;22.27;72.92;97599.06;6283980;22;20153;-93
2022/06/13 03:06:53;;;;;;;1.70;1.60;;;;;;;17.74;72.57;96838.41;6335716;22;20155;-94
2022/06/13 03:09:33;;;;;;;1.80;1.70;;;;;;;19.13;72.19;97095.75;6289187;22;20163;-94
2022/06/13 03:12:01;;;;;;;4.50;1.70;;;;;;;19.14;72.57;97064.38;6336252;22;20194;-93
2022/06/13 03:14:38;;;;;;;1.70;1.60;;;;;;;21.10;72.98;97389.34;6284729;22;20161;-94
2022/06/13 03:17:56;;;;;;;1.70;1.60;;;;;;;15.80;73.06;96491.66;6310581;22;20157;-93
2022/06/13 03:20:37;;;;;;;1.63;1.53;;;;;;;22.26;72.85;97595.63;6259915;22;20183;-93
2022/06/13 03:23:35;;;;;;;1.67;1.57;;;;;;;22.26;73.01;97595.63;6284555;22;20173;-94
2022/06/13 03:26:05;;;;;;;1.60;1.50;;;;;;;22.27;72.94;97601.63;6281677;22;20158;-94
2022/06/13 03:28:52;;;;;;;1.70;1.60;;;;;;;18.12;73.11;96888.84;6259858;22;20139;-92
2022/06/13 03:31:51;;;;;;;1.87;1.77;;;;;;;16.85;73.63;96704.13;6312338;22;20204;-93
2022/06/13 03:34:26;;;;;;;1.50;1.40;;;;;;;20.90;72.99;97387.88;6259262;22;20151;-93
2022/06/13 03:37:05;;;;;;;1.83;1.73;;;;;;;17.62;72.55;96807.50;6284406;22;20139;-94
2022/06/13 03:39:44;;;;;;;1.60;1.50;;;;;;;18.42;72.65;96932.25;6309938;22;20171;-94
2022/06/13 03:42:11;;;;;;;1.50;1.40;;;;;;;22.28;72.83;97598.22;6309902;22;20157;-94
2022/06/13 03:44:59;;;;;;;1.60;1.50;;;;;;;22.28;72.60;97596.53;6309999;22;20151;-93
2022/06/13 03:47:31;;;;;;;1.87;1.77;;;;;;;18.33;72.51;96931.91;6335988;22;20177;-90
2022/06/13 03:50:07;;;;;;;1.63;1.53;;;;;;;20.31;73.00;97290.75;6310796;22;20202;-92
2022/06/13 03:52:36;;;;;;;1.67;1.57;;;;;;;18.67;73.66;96989.84;6284690;22;20178;-93
2022/06/13 03:55:17;;;;;;;1.67;1.57;;;;;;;17.58;72.58;96807.38;6335350;22;20177;-94
2022/06/13 03:57:55;;;;;;;1.77;1.67;;;;;;;18.50;72.30;96937.56;6285064;22;20158;-93
2022/06/13 04:00:26;;;;;;;2.57;1.60;;;;;;;19.21;72.59;97088.34;6259741;22;20195;-94
2022/06/13 04:02:53;;;;;;;1.50;1.40;;;;;;;17.19;72.40;96771.31;6310052;22;20165;-94
2022/06/13 04:05:29;;;;;;;1.63;1.53;;;;;;;18.13;72.57;96910.03;6285331;22;20151;-91
2022/06/13 04:07:57;;;;;;;1.63;1.53;;;;;;;19.19;72.60;97061.97;6296601;22;20211;-95
2022/06/13 04:10:24;;;;;;;1.67;1.57;;;;;;;19.71;72.57;97188.53;6244816;22;20191;-93
2022/06/13 04:13:11;;;;;;;1.50;1.40;;;;;;;22.29;72.77;97594.88;6258690;22;20192;-94
2022/06/13 04:15:59;;;;;;;1.60;1.50;;;;;;;22.29;72.87;97607.66;6253481;22;20160;-94
2022/06/13 04:19:02;;;;;;;1.60;1.50;;;;;;;22.28;72.75;97600.78;6279365;22;20178;-93
2022/06/13 04:21:59;;;;;;;1.70;1.60;;;;;;;19.43;72.83;97149.41;6248698;22;20148;-93
2022/06/13 04:24:46;;;;;;;1.60;1.50;;;;;;;22.27;72.98;97606.75;6225360;22;20169;-94
2022/06/13 04:27:34;;;;;;;1.97;1.73;;;;;;;16.46;72.61;96636.78;6273742;22;20165;-94
2022/06/13 04:30:32;;;;;;;1.50;1.40;;;;;;;20.95;72.96;97369.34;6223958;22;20207;-95
2022/06/13 04:35:34;;;;;;;1.60;1.50;;;;;;;16.86;72.17;96660.16;6330107;22;20245;-92
2022/06/13 04:38:03;;;;;;;1.57;1.47;;;;;;;17.87;72.39;96849.84;6284360;22;20151;-93
2022/06/13 04:40:31;;;;;;;1.60;1.50;;;;;;;19.21;72.35;97063.75;6309964;22;20175;-93
2022/06/13 04:42:58;;;;;;;1.50;1.40;;;;;;;19.33;72.20;97115.09;6259298;22;20159;-94
2022/06/13 04:46:16;;;;;;;1.70;1.60;;;;;;;22.28;72.63;97596.53;6259982;22;20143;-92
2022/06/13 04:48:44;;;;;;;1.73;1.63;;;;;;;20.23;73.45;97254.78;6245939;22;20182;-93
2022/06/13 04:51:19;;;;;;;1.67;1.57;;;;;;;17.76;72.60;96859.66;6255709;22;20199;-94
2022/06/13 04:54:21;;;;;;;1.60;1.50;;;;;;;22.29;72.77;97612.78;6231615;22;20151;-93
2022/06/13 04:56:48;;;;;;;1.60;1.50;;;;;;;19.22;72.15;97095.19;6280809;22;20151;-94
2022/06/13 05:01:53;;;;;;;1.63;1.53;;;;;;;19.09;72.55;97096.47;6299357;22;20188;-92
2022/06/13 05:04:41;;;;;;;1.70;1.60;;;;;;;19.98;72.52;97216.56;6261556;22;20224;-93
2022/06/13 05:10:00;;;;;;;1.60;1.50;;;;;;;18.12;72.71;96937.16;6324909;22;20255;-93
2022/06/13 05:12:46;;;;;;;1.50;1.40;;;;;;;19.27;72.57;97167.56;6227209;22;20175;-96
2022/06/13 05:15:29;;;;;;;1.50;1.40;;;;;;;21.38;72.59;97481.34;6275057;22;20160;-96
2022/06/13 05:18:13;;;;;;;1.60;1.50;;;;;;;22.29;72.46;97608.50;6249530;22;20175;-94
2022/06/13 05:21:16;;;;;;;1.50;1.40;;;;;;;21.51;72.90;97486.84;6273422;22;20175;-96
2022/06/13 05:23:47;;;;;;;1.50;1.40;;;;;;;17.91;72.48;96885.59;6226166;22;20213;-93
2022/06/13 05:26:14;;;;;;;1.47;1.37;;;;;;;19.95;72.75;97265.78;6247809;22;20176;-95
2022/06/13 05:28:42;;;;;;;5.70;1.50;;;;;;;18.93;72.66;97050.09;6223726;22;20177;-96
2022/06/13 05:31:16;;;;;;;1.60;1.50;;;;;;;15.81;72.13;96545.72;6225109;22;20218;-96
2022/06/13 05:33:44;;;;;;;1.60;1.50;;;;;;;18.96;72.74;97099.44;6274710;22;20170;-95
2022/06/13 05:36:16;;;;;;;1.70;1.60;;;;;;;20.17;72.34;97240.97;6248248;22;20178;-96
2022/06/13 05:38:52;;;;;;;1.80;1.70;;;;;;;18.44;72.37;96985.72;6223809;22;20183;-95
2022/06/13 05:41:21;;;;;;;2.03;1.60;;;;;;;18.05;72.40;96962.31;6250204;22;20198;-95
2022/06/13 05:43:47;;;;;;;2.03;1.50;;;;;;;17.94;72.68;96945.81;6223524;22;20159;-93
2022/06/13 05:46:21;;;;;;;1.73;1.63;;;;;;;18.55;72.42;96985.25;6222934;22;20523;-96
2022/06/13 05:48:55;;;;;;;1.60;1.50;;;;;;;19.32;72.72;97178.75;6275471;22;20191;-94
2022/06/13 05:51:22;;;;;;;1.47;1.40;;;;;;;16.35;72.44;96583.16;6222593;22;20209;-92
2022/06/13 05:53:50;;;;;;;1.73;1.63;;;;;;;20.42;72.77;97338.75;6248683;22;20277;-93
2022/06/13 05:56:17;;;;;;;1.60;1.50;;;;;;;17.35;72.50;96831.94;6247541;22;20199;-94
2022/06/13 05:58:44;;;;;;;1.50;1.40;;;;;;;20.34;72.47;97324.03;6223608;22;20175;-96
2022/06/13 06:01:15;;;;;;;1.60;1.50;;;;;;;15.64;72.33;96507.16;6225658;22;20175;-94
2022/06/13 06:03:44;;;;;;;1.60;1.50;;;;;;;17.81;72.26;96897.94;6225909;22;20168;-94
2022/06/13 06:06:22;;;;;;;1.70;1.60;;;;;;;14.26;72.08;96229.66;6253600;22;20163;-94
2022/06/13 06:08:49;;;;;;;1.50;1.40;;;;;;;16.28;72.20;96601.47;6275415;22;20148;-96
2022/06/13 06:11:18;;;;;;;1.70;1.60;;;;;;;19.90;72.59;97254.56;6222393;23;20212;-95
2022/06/13 06:13:46;;;;;;;1.40;1.40;;;;;;;20.10;72.42;97244.13;6245857;23;20152;-96
2022/06/13 06:16:17;;;;;;;1.53;1.43;;;;;;;20.67;72.16;97359.09;6220376;23;20172;-94
2022/06/13 06:18:44;;;;;;;1.63;1.53;;;;;;;16.03;71.96;96576.06;6219149;23;20176;-95
2022/06/13 06:21:12;;;;;;;2.20;1.47;;;;;;;19.41;72.49;97177.38;6220051;23;20176;-96
2022/06/13 06:23:39;;;;;;;1.63;1.53;;;;;;;16.28;71.95;96602.34;6219762;23;20173;-93
2022/06/13 06:26:13;;;;;;;1.70;1.60;;;;;;;19.95;72.77;97203.72;6243551;23;20172;-95
2022/06/13 06:28:40;;;;;;;1.57;1.47;;;;;;;16.09;71.81;96599.09;6219215;23;20199;-94
2022/06/13 06:31:07;;;;;;;1.70;1.60;;;;;;;18.00;71.93;96887.59;6245251;23;20219;-95
2022/06/13 06:33:47;;;;;;;1.67;1.57;;;;;;;17.89;72.19;96871.09;6247822;23;20155;-96
2022/06/13 06:36:15;;;;;;;1.60;1.50;;;;;;;16.21;71.95;96656.19;6219801;23;20176;-95
2022/06/13 06:38:41;;;;;;;1.67;1.57;;;;;;;20.60;72.71;97349.50;6217949;23;20172;-96
2022/06/13 06:41:08;;;;;;;1.60;1.50;;;;;;;17.92;72.29;96953.41;6244298;23;20192;-93
2022/06/13 06:43:36;;;;;;;1.43;1.33;;;;;;;17.03;72.13;96766.53;6220134;23;20199;-94
2022/06/13 06:46:03;;;;;;;1.70;1.60;;;;;;;17.89;72.14;96878.75;6243815;23;20156;-95
2022/06/13 06:48:43;;;;;;;1.50;1.40;;;;;;;17.96;72.78;96918.78;6223640;23;20171;-96
2022/06/13 06:51:14;;;;;;;1.97;1.33;;;;;;;18.77;72.64;97068.25;6219885;23;20192;-95
2022/06/13 07:02:23;;;;;;;1.50;1.40;;;;;;;20.20;72.55;97345.69;6267503;23;20168;-94
2022/06/13 07:04:55;;;;;;;1.60;1.50;;;;;;;15.58;71.85;96509.44;6244437;22;20157;-93
2022/06/13 07:07:23;;;;;;;1.67;1.57;;;;;;;17.94;71.99;96951.78;6218621;23;20164;-93
2022/06/13 07:09:54;;;;;;;1.57;1.47;;;;;;;17.65;72.11;96843.19;6242927;22;20192;-92
2022/06/13 07:12:21;;;;;;;1.60;1.50;;;;;;;15.97;72.08;96563.19;6275122;22;20195;-94
2022/06/13 07:14:48;;;;;;;1.63;1.53;;;;;;;19.13;72.21;97148.38;6225044;22;20509;-95
2022/06/13 07:17:15;;;;;;;1.27;1.27;;;;;;;20.06;72.39;97321.38;6222423;22;20198;-96
2022/06/13 07:19:46;;;;;;;1.50;1.40;;;;;;;20.47;72.41;97378.03;6221968;22;20171;-94
2022/06/13 07:22:17;;;;;;;1.50;1.40;;;;;;;22.33;72.51;97648.75;6224061;22;20151;-94
2022/06/13 07:24:45;;;;;;;1.20;1.20;;;;;;;17.94;72.05;96971.25;6272713;22;20156;-95
2022/06/13 07:27:13;;;;;;;1.60;1.50;;;;;;;16.32;72.27;96631.22;6246643;22;20229;-95
2022/06/13 07:29:42;;;;;;;2.33;1.60;;;;;;;18.27;72.36;96970.72;6273645;22;20190;-94
2022/06/13 07:32:23;;;;;;;1.47;1.37;;;;;;;16.08;72.04;96580.50;6223392;22;20172;-95
2022/06/13 07:34:52;;;;;;;1.50;1.40;;;;;;;21.46;72.57;97515.66;6223164;22;20175;-96
2022/06/13 07:40:10;;;;;;;2.17;1.70;;;;;;;18.79;72.53;97064.94;6254689;22;20241;-95
2022/06/13 07:42:58;;;;;;;1.50;1.40;;;;;;;18.03;72.17;96936.84;6223125;22;20167;-96
2022/06/13 07:45:27;;;;;;;1.50;1.40;;;;;;;20.32;72.37;97348.63;6246646;22;20147;-94
2022/06/13 07:48:14;;;;;;;1.93;1.50;;;;;;;17.94;72.12;96956.00;6276787;22;20186;-94
2022/06/13 07:50:41;;;;;;;1.70;1.60;;;;;;;17.29;71.85;96857.13;6221287;22;20191;-94
2022/06/13 07:53:11;;;;;;;1.63;1.53;;;;;;;15.24;71.69;96437.22;6223218;22;20172;-94
2022/06/13 07:55:37;;;;;;;1.60;1.50;;;;;;;17.26;71.92;96834.16;6220924;22;20172;-94
2022/06/13 07:58:05;;;;;;;1.50;1.40;;;;;;;17.77;72.06;96962.19;6247736;22;20202;-95
2022/06/13 08:00:43;;;;;;;1.67;1.57;;;;;;;22.34;72.43;97665.84;6252435;22;20217;-96
2022/06/13 08:03:23;;;;;;;1.70;1.60;;;;;;;17.89;72.13;96894.81;6246232;22;20168;-96
2022/06/13 08:05:51;;;;;;;1.60;1.50;;;;;;;17.73;72.11;96905.31;6272604;22;20164;-93
2022/06/13 08:08:18;;;;;;;1.47;1.40;;;;;;;17.80;72.20;96902.16;6247790;22;20176;-93
2022/06/13 08:10:45;;;;;;;1.63;1.53;;;;;;;17.51;72.37;96846.97;6217781;23;20200;-95
2022/06/13 08:13:12;;;;;;;1.33;1.30;;;;;;;18.18;72.15;97000.06;6219864;23;20202;-95
2022/06/13 08:15:41;;;;;;;1.60;1.50;;;;;;;17.83;72.44;96889.53;6218111;23;20172;-94
2022/06/13 08:18:08;;;;;;;1.40;1.30;;;;;;;16.87;72.38;96792.16;6241412;23;20183;-93
2022/06/13 08:20:37;;;;;;;1.50;1.40;;;;;;;15.32;71.98;96516.84;6218160;23;20227;-93
2022/06/13 08:23:08;;;;;;;1.60;1.50;;;;;;;19.52;72.95;97196.44;6218135;23;20168;-95
2022/06/13 08:25:36;;;;;;;1.60;1.50;;;;;;;17.89;72.04;96914.31;6267934;22;20168;-96
2022/06/13 08:28:04;;;;;;;1.57;1.47;;;;;;;20.04;72.27;97308.56;6243479;23;20222;-94
2022/06/13 08:30:53;;;;;;;1.50;1.40;;;;;;;17.91;72.09;96915.22;6243748;23;20193;-95
2022/06/13 08:33:43;;;;;;;1.60;1.50;;;;;;;22.35;72.36;97692.31;6220567;23;20184;-95
2022/06/13 08:36:12;;;;;;;2.13;1.50;;;;;;;17.30;72.43;96835.16;6267042;23;20172;-94
2022/06/13 08:38:40;;;;;;;1.50;1.40;;;;;;;17.89;72.00;96983.78;6218561;23;20161;-93
2022/06/13 08:41:10;;;;;;;1.50;1.40;;;;;;;22.36;72.37;97702.63;6217747;23;20192;-94
2022/06/13 08:44:00;;;;;;;1.60;1.50;;;;;;;22.36;72.35;97704.31;6267549;23;20183;-95
2022/06/13 08:46:58;;;;;;;1.70;1.60;;;;;;;22.12;72.51;97690.78;6268739;22;20168;-93
2022/06/13 08:50:05;;;;;;;1.60;1.50;;;;;;;18.66;72.10;97158.66;6267699;22;20180;-92
2022/06/13 08:52:45;;;;;;;1.43;1.33;;;;;;;19.62;72.19;97266.41;6245953;23;20199;-94
2022/06/13 08:55:24;;;;;;;1.50;1.40;;;;;;;22.36;72.55;97704.31;6219236;23;20171;-94
2022/06/13 08:58:15;;;;;;;1.70;1.60;;;;;;;17.09;72.22;96826.78;6269687;23;20195;-92
2022/06/13 09:01:02;;;;;;;1.60;1.50;;;;;;;20.30;72.00;97353.69;6269631;23;20227;-96
2022/06/13 09:03:53;;;;;;;1.40;1.40;;;;;;;22.35;72.44;97711.09;6249652;23;20169;-94
2022/06/13 09:06:28;;;;;;;1.70;1.60;;;;;;;22.36;72.64;97705.19;6271545;22;20222;-94
2022/06/13 09:09:19;;;;;;;1.50;1.40;;;;;;;16.40;72.07;96703.31;6244791;23;20173;-95
2022/06/13 09:12:27;;;;;;;1.60;1.50;;;;;;;21.02;72.55;97534.75;6242445;22;20183;-95
2022/06/13 09:15:30;;;;;;;1.60;1.50;;;;;;;16.57;72.60;96747.94;6255533;22;20166;-94
2022/06/13 09:18:10;;;;;;;1.67;1.57;;;;;;;17.54;71.61;96947.81;6275824;22;20246;-94
2022/06/13 09:20:45;;;;;;;2.00;1.67;;;;;;;22.35;72.24;97711.09;6249828;22;20253;-96
2022/06/13 09:23:17;;;;;;;1.50;1.40;;;;;;;22.36;72.41;97711.97;6275029;22;20190;-95
2022/06/13 09:25:54;;;;;;;1.50;1.40;;;;;;;22.35;72.41;97715.38;6273438;22;20144;-94
2022/06/13 09:28:26;;;;;;;1.30;1.30;;;;;;;22.36;72.29;97717.97;6248594;22;20182;-95
2022/06/13 09:31:06;;;;;;;1.30;1.30;;;;;;;13.42;71.72;96269.25;6273838;22;20214;-95
2022/06/13 09:33:34;;;;;;;1.60;1.50;;;;;;;18.79;72.19;97095.47;6226592;22;20191;-95
2022/06/13 09:36:26;;;;;;;1.50;1.40;;;;;;;15.32;71.82;96550.63;6248343;22;20194;-94
2022/06/13 09:39:02;;;;;;;1.40;1.30;;;;;;;20.04;72.20;97357.03;6285535;22;20254;-94
2022/06/13 09:41:38;;;;;;;1.80;1.70;;;;;;;17.04;72.35;96811.41;6273205;22;20198;-94
2022/06/13 09:44:56;;;;;;;2.10;1.60;;;;;;;20.53;72.47;97419.09;6249459;22;20163;-95
2022/06/13 09:47:38;;;;;;;1.60;1.50;;;;;;;22.35;72.58;97703.41;6238061;22;20175;-96
2022/06/13 09:50:32;;;;;;;1.33;1.33;;;;;;;16.50;72.07;96735.84;6247450;22;20217;-94
2022/06/13 09:53:37;;;;;;;1.50;1.40;;;;;;;22.35;72.48;97712.81;6274408;22;20737;-95
2022/06/13 09:56:10;;;;;;;1.50;1.40;;;;;;;19.00;72.15;97182.75;6300064;22;20172;-95
2022/06/13 09:59:00;;;;;;;1.70;1.60;;;;;;;22.35;72.40;97721.34;6274841;22;20524;-95
2022/06/13 10:01:47;;;;;;;1.73;1.63;;;;;;;17.82;71.88;96937.78;6272873;22;20191;-93
2022/06/13 10:04:18;;;;;;;1.30;1.30;;;;;;;16.05;71.78;96706.25;6271067;22;20183;-93
2022/06/13 10:06:51;;;;;;;1.50;1.40;;;;;;;20.56;72.14;97431.94;6247386;22;20171;-94
2022/06/13 10:10:03;;;;;;;3.10;1.70;;;;;;;22.36;72.39;97717.97;6247639;22;20173;-94
2022/06/13 10:12:30;;;;;;;1.63;1.53;;;;;;;22.37;72.47;97721.38;6241921;23;20239;-96
2022/06/13 10:15:16;;;;;;;1.43;1.40;;;;;;;17.71;72.11;97000.94;6269410;23;20164;-95
2022/06/13 10:17:49;;;;;;;1.60;1.50;;;;;;;22.35;72.52;97718.78;6246366;23;20164;-93
2022/06/13 10:20:51;;;;;;;1.60;1.50;;;;;;;22.36;72.42;97720.53;6266989;23;20192;-92
2022/06/13 10:23:18;;;;;;;1.67;1.57;;;;;;;22.36;72.54;97717.09;6177498;23;20183;-93
2022/06/13 10:25:58;;;;;;;1.53;1.43;;;;;;;16.34;72.25;96728.44;6266667;23;20229;-96
2022/06/13 10:28:40;;;;;;;1.53;1.43;;;;;;;22.36;72.63;97720.53;6217416;23;20176;-93
2022/06/13 10:31:21;;;;;;;1.47;1.37;;;;;;;22.36;72.53;97714.53;6268509;23;20248;-94
2022/06/13 10:34:08;;;;;;;1.50;1.40;;;;;;;22.36;72.52;97735.03;6217715;23;20210;-95
2022/06/13 10:36:45;;;;;;;1.43;1.33;;;;;;;19.48;72.29;97291.44;6216905;23;20152;-96
2022/06/13 10:39:28;;;;;;;1.53;1.43;;;;;;;21.54;72.47;97581.56;6242687;23;20168;-95
2022/06/13 10:42:10;;;;;;;1.27;1.27;;;;;;;17.58;71.93;97021.66;6215212;23;20160;-93
2022/06/13 10:44:48;;;;;;;1.50;1.40;;;;;;;18.03;71.82;97018.19;6246195;23;20191;-93
2022/06/13 10:47:34;;;;;;;1.50;1.40;;;;;;;20.31;72.18;97364.75;6217213;23;20234;-95
2022/06/13 10:50:06;;;;;;;1.57;1.47;;;;;;;16.65;71.84;96741.47;6240257;23;20659;-93
2022/06/13 10:52:44;;;;;;;1.70;1.60;;;;;;;18.34;72.20;97048.09;6217229;23;20183;-94
2022/06/13 10:55:12;;;;;;;1.60;1.50;;;;;;;17.13;71.84;96854.00;6191068;23;20160;-95
2022/06/13 10:57:44;;;;;;;1.47;1.40;;;;;;;16.79;71.81;96758.06;6190862;23;20199;-92
2022/06/13 11:00:30;;;;;;;1.80;1.70;;;;;;;15.08;72.00;96501.63;6190918;23;20218;-94
2022/06/13 11:03:33;;;;;;;1.50;1.40;;;;;;;16.32;72.07;96705.56;6214603;23;20161;-95
2022/06/13 11:06:03;;;;;;;1.40;1.30;;;;;;;17.85;72.15;96945.50;6215249;23;20175;-92
2022/06/13 11:08:30;;;;;;;1.63;1.53;;;;;;;16.71;72.44;96777.22;6192312;23;20195;-96
2022/06/13 17:12:58;;;;;;;1.50;1.40;;;;;;;22.40;72.05;97829.91;6274880;22;20325;-91
2022/06/13 17:15:26;;;;;;;1.20;1.20;;;;;;;20.47;71.96;97527.78;6249140;22;20139;-95
2022/06/13 17:17:53;;;;;;;1.33;1.30;;;;;;;20.22;72.17;97457.19;6224230;22;20176;-94
2022/06/13 17:20:26;;;;;;;1.40;1.30;;;;;;;22.35;72.35;97910.84;6223843;22;20175;-95
2022/06/13 17:22:54;;;;;;;1.20;1.20;;;;;;;20.89;71.95;97578.59;6218175;23;20214;-94
2022/06/13 17:25:22;;;;;;;1.30;1.30;;;;;;;17.75;71.84;97057.84;6193268;23;20172;-93
2022/06/13 17:33:21;;;;;;;1.10;1.10;;;;;;;19.67;71.92;97387.25;6224408;23;20240;-94
2022/06/13 17:35:47;;;;;;;1.40;1.30;;;;;;;17.39;72.17;96982.78;6218349;23;20191;-92
2022/06/13 17:38:14;;;;;;;1.23;1.10;;;;;;;20.07;72.17;97476.19;6192030;23;20203;-93
2022/06/13 17:40:43;;;;;;;1.30;1.30;;;;;;;15.26;71.50;96674.41;6194180;23;20173;-93
2022/06/13 17:43:10;;;;;;;1.30;1.20;;;;;;;19.94;72.00;97408.56;6192552;23;20188;-93
2022/06/13 17:45:36;;;;;;;1.37;1.30;;;;;;;17.47;71.66;97020.38;6241619;23;20207;-93
2022/06/13 17:48:04;;;;;;;1.23;1.23;;;;;;;15.97;71.68;96807.31;6217604;23;20167;-94
2022/06/13 17:50:32;;;;;;;1.30;1.20;;;;;;;15.03;71.55;96605.94;6193343;23;20160;-94
2022/06/13 17:52:59;;;;;;;1.30;1.30;;;;;;;19.47;71.81;97401.84;6191658;23;20536;-94
2022/06/13 17:55:26;;;;;;;1.50;1.40;;;;;;;19.55;72.16;97436.13;6193429;23;20160;-96
2022/06/13 17:57:53;;;;;;;1.30;1.30;;;;;;;18.96;71.86;97340.47;6213627;23;20223;-94
2022/06/13 18:00:21;;;;;;;1.33;1.30;;;;;;;21.14;72.18;97646.75;6188774;23;20242;-94
2022/06/13 18:02:51;;;;;;;1.37;1.30;;;;;;;16.08;71.72;96798.44;6189458;23;20242;-91
2022/06/13 18:05:18;;;;;;;1.40;1.30;;;;;;;20.90;71.91;97656.09;6214753;23;20252;-93
2022/06/13 18:07:46;;;;;;;1.40;1.30;;;;;;;18.07;72.30;97200.59;6189331;23;20172;-94
2022/06/13 18:10:14;;;;;;;1.40;1.30;;;;;;;17.69;71.41;97099.16;6190541;23;20161;-94
2022/06/13 18:12:41;;;;;;;1.50;1.40;;;;;;;21.63;71.72;97727.63;6217610;23;20200;-95
2022/06/13 18:15:08;;;;;;;1.27;1.27;;;;;;;20.24;71.92;97538.88;6190013;23;20189;-93
2022/06/13 18:17:35;;;;;;;1.20;1.20;;;;;;;19.71;72.01;97458.78;6190275;23;20168;-94
2022/06/13 18:20:04;;;;;;;1.30;1.30;;;;;;;17.55;71.64;97109.56;6215847;23;20172;-93
2022/06/13 18:22:30;;;;;;;1.10;1.10;;;;;;;19.96;71.94;97516.63;6191342;23;20192;-94
2022/06/13 18:24:57;;;;;;;1.27;1.20;;;;;;;17.89;71.91;97089.72;6213889;23;20168;-95
2022/06/13 18:27:24;;;;;;;1.40;1.30;;;;;;;19.80;71.73;97438.72;6240972;23;20203;-94
2022/06/13 18:29:52;;;;;;;1.20;1.20;;;;;;;19.31;71.71;97365.56;6189863;23;20172;-95
2022/06/13 18:32:19;;;;;;;1.20;1.20;;;;;;;20.30;71.91;97587.59;6215167;23;20713;-93
2022/06/13 18:34:46;;;;;;;1.20;1.20;;;;;;;16.41;71.46;96850.44;6190664;23;20211;-94
2022/06/13 18:37:13;;;;;;;1.20;1.20;;;;;;;18.17;71.58;97225.53;6191688;23;20162;-94
2022/06/13 18:39:40;;;;;;;1.30;1.30;;;;;;;16.17;71.67;96816.53;6214023;23;20172;-91
2022/06/13 18:42:08;;;;;;;1.20;1.20;;;;;;;18.13;71.76;97195.72;6190340;23;20192;-94
2022/06/13 18:44:44;;;;;;;1.20;1.20;;;;;;;16.12;71.70;96853.53;6195357;23;20156;-94
2022/06/13 18:47:13;;;;;;;1.40;1.30;;;;;;;18.00;71.79;97108.78;6189047;23;20157;-91
2022/06/13 18:49:40;;;;;;;1.20;1.20;;;;;;;17.96;71.67;97143.38;6213222;23;20208;-94
2022/06/13 18:52:07;;;;;;;1.30;1.30;;;;;;;14.26;71.12;96473.88;6189470;23;20192;-95
2022/06/13 18:54:34;;;;;;;1.40;1.30;;;;;;;18.41;71.70;97217.13;6211871;23;20184;-94
2022/06/13 18:57:01;;;;;;;1.30;1.30;;;;;;;17.79;72.10;97141.88;6211263;23;20168;-92
2022/06/13 18:59:28;;;;;;;1.20;1.20;;;;;;;17.17;71.71;97026.81;6213770;23;20172;-94
2022/06/13 19:01:55;;;;;;;1.43;1.33;;;;;;;19.68;71.87;97443.38;6213385;23;20200;-93
2022/06/13 19:04:22;;;;;;;1.50;1.40;;;;;;;20.43;72.18;97559.97;6189132;23;20168;-95
2022/06/13 19:06:50;;;;;;;1.33;1.23;;;;;;;18.65;71.80;97263.81;6213867;23;20177;-91
2022/06/13 19:09:18;;;;;;;1.40;1.30;;;;;;;18.16;71.28;97253.47;6190790;23;20168;-95
2022/06/13 19:11:45;;;;;;;1.10;1.10;;;;;;;18.42;71.77;97195.94;6185768;23;20212;-94
2022/06/13 19:14:14;;;;;;;1.23;1.23;;;;;;;20.50;71.83;97646.19;6185260;23;20200;-94